Flight Track Log - Related Links

Times and Time Zones

All times are in EDT time to prevent confusion due to time zone crossing. See the N31007 flight status page for this flight to view local times or setup timezone preferences in your user account.


Time Position Orientation Groundspeed Altitude Reporting Facility
EDT Latitude Longitude Course Direction KTS MPH feet Rate Location/Type
Fri 11:17:35 AM 34.2425 -80.2375 215° Southwest 181 208 4,100  Level Jacksonville Center
Fri 11:18:35 AM 34.2117 -80.2636 215° Southwest 158 182 4,100  Level Jacksonville Center
Fri 11:19:35 AM 34.1958 -80.2992 242° Southwest 138 159 4,100  Level Jacksonville Center
Fri 11:20:35 AM 34.1800 -80.3447 247° West 145 167 4,100  Level Jacksonville Center
Fri 11:21:35 AM 34.1642 -80.3856 245° Southwest 145 167 4,100  Level Jacksonville Center
Fri 11:22:35 AM 34.1503 -80.4311 250° West 145 167 4,100  Level Jacksonville Center
Fri 11:23:35 AM 34.1303 -80.4717 239° Southwest 145 167 4,100 -50 Level Jacksonville Center
Fri 11:24:35 AM 34.1058 -80.5025 226° Southwest 138 159 4,000  Descending Jacksonville Center
Fri 11:25:35 AM 34.0686 -80.5186 200° South 133 153 4,100 50 Climbing Jacksonville Center
Fri 11:26:35 AM 34.0333 -80.5344 200° South 138 159 4,100  Level Jacksonville Center
Fri 11:27:35 AM 33.9983 -80.5581 209° Southwest 138 159 4,100 -50 Level Jacksonville Center
Fri 11:28:35 AM 33.9653 -80.5739 202° Southwest 138 159 4,000  Descending Jacksonville Center
Fri 11:29:35 AM 33.9258 -80.5850 193° South 138 159 4,100  Climbing Jacksonville Center
Fri 11:30:35 AM 33.8928 -80.5983 199° South 138 159 4,000  Descending Jacksonville Center
Fri 11:31:35 AM 33.8575 -80.6142 200° South 138 159 4,100 50 Climbing Jacksonville Center
Fri 11:32:35 AM 33.8222 -80.6278 198° South 138 159 4,100  Level Jacksonville Center
Fri 11:33:35 AM 33.7831 -80.6411 196° South 138 159 4,100  Level Jacksonville Center
Fri 11:34:35 AM 33.7478 -80.6547 198° South 138 159 4,100 -150 Level Jacksonville Center
Fri 11:35:35 AM 33.7103 -80.6681 196° South 144 166 3,800 -350 Descending Jacksonville Center
Fri 11:36:35 AM 33.6711 -80.6889 204° Southwest 149 171 3,400 -400 Descending Jacksonville Center
Fri 11:37:35 AM 33.6339 -80.7097 205° Southwest 149 171 3,000 -400 Descending Jacksonville Center
Fri 11:38:35 AM 33.5964 -80.7083 178° South 144 166 2,600 500 Descending Jacksonville Center
Fri 11:39:35 AM 33.5508 -80.7294 201° Southwest 144 166 4,000 1,400 Climbing Jacksonville Center

Login

Don't have an account? Register now (free) for customized features, flight alerts, and more!